Denver, Colorado
Traffic Map
Current Weather Conditions
Denver, Colorado
Broken Clouds
Broken Clouds
53°
Feels Like: 53°
Wind Chill: 53° Ceiling: 22000
Heat Index: 53° Visibility: 10mi
Dew Point: 11° Wind: 9mph
Humidity: 19% Direction: 270° (W)
Pressure: 29.97in Gusts: 0mph
Raw Report DataKBKF 281458Z 27008KT 10SM FEW110 BKN220 12/M12 A2997 RMK AO2A SLP109 T01151117 56008
Traffic Incident Summary
Active as of:
Severity:
Category:
InformationThere was an issue retrieving the traffic information for this location. Please try a different location or try again shortly.
Advertisements
Track Severe Weather on mobile